Afton, Texas
Current Conditions -  °F | °C
As of 6:53 AM on Thursday 23 Oct 2014 (Local Time) from KCDS Reporting Station
Moderate Fog Moderate Fog  
Wind Chill: 56°   Ceiling: 200
Heat Index: 56°   Visibility: 0.25mi
Dew Point: 55°   Wind: 3mph
Humidity: 97%   Direction: 180°S
Pressure: 30.1"   Gusts: NA
Location:  33.76°N, 100.82°W
Report Text: KCDS 231153Z AUTO 18003KT 1/4SM FG VV002 13/13 A3010 RMK AO2 SLP181 7//// T01330128 10161 20133 56006
Loading
Personal Weather Stations






























Interactive Weather Map New forecast layout! Learn more

10-Day Weather Forecast

Advertisements
Track Severe Weather on mobile